Time;durP1;ratioP1;P1;durP2;ratioP2;P2;SDS_P1;SDS_P2;PMS_P1;PMS_P2;Temp;Humidity;BMP_temperature;BMP_pressure;BME280_temperature;BME280_humidity;BME280_pressure;Samples;Min_cycle;Max_cycle;Signal;HPM_P1;HPM_P2
2022/01/28 00:00:36;;;;;;;4.23;3.83;;;;;;;4.97;96.27;96472.88;5012587;28;20226;-84
2022/01/28 00:03:07;;;;;;;4.27;3.87;;;;;;;5.03;95.27;96480.03;5011806;28;20796;-85
2022/01/28 00:05:34;;;;;;;4.60;4.20;;;;;;;4.98;95.96;96477.06;5012528;28;20686;-85
2022/01/28 00:08:01;;;;;;;4.17;3.77;;;;;;;4.98;95.59;96469.41;5011866;28;20245;-84
2022/01/28 00:10:29;;;;;;;4.57;3.83;;;;;;;5.03;95.35;96485.94;5011739;28;20222;-84
2022/01/28 00:16:05;;;;;;;4.53;4.13;;;;;;;5.11;94.89;96501.50;5010586;28;20642;-84
2022/01/28 00:18:50;;;;;;;4.60;4.00;;;;;;;5.02;94.33;96489.44;5007714;28;20214;-85
2022/01/28 00:40:26;;;;;;;4.27;3.83;;;;;;;4.85;95.31;96511.16;5008860;28;20268;-84
2022/01/28 00:42:53;;;;;;;5.17;4.13;;;;;;;4.85;95.18;96502.69;5025590;23;20255;-83
2022/01/28 00:45:19;;;;;;;4.60;3.73;;;;;;;4.86;95.42;96507.69;5009692;28;20230;-83
2022/01/28 00:47:47;;;;;;;3.63;3.33;;;;;;;4.86;95.43;96512.78;5002747;28;20200;-83
2022/01/28 00:50:15;;;;;;;4.30;3.40;;;;;;;4.92;94.86;96515.81;5010092;28;20222;-83
2022/01/28 00:52:42;;;;;;;3.50;3.20;;;;;;;4.80;94.39;96515.00;5000826;28;20591;-84
2022/01/28 00:55:09;;;;;;;3.60;3.30;;;;;;;4.76;95.11;96516.19;4974607;28;20228;-83
2022/01/28 00:57:35;;;;;;;3.53;3.23;;;;;;;4.73;95.35;96522.31;4986079;28;20200;-83
2022/01/28 01:00:02;;;;;;;5.43;3.53;;;;;;;4.80;94.74;96525.22;4994907;28;20200;-83
2022/01/28 01:02:29;;;;;;;4.00;3.30;;;;;;;4.81;94.79;96521.75;4986000;28;20223;-83
2022/01/28 01:04:55;;;;;;;3.90;3.50;;;;;;;4.81;93.14;96522.53;4971399;28;20235;-84
2022/01/28 01:07:23;;;;;;;4.10;3.70;;;;;;;4.79;93.24;96521.03;4976901;28;20203;-84
2022/01/28 01:09:50;;;;;;;5.03;4.13;;;;;;;4.69;93.57;96520.91;4987803;28;20199;-83
2022/01/28 01:12:18;;;;;;;3.90;3.60;;;;;;;4.69;92.74;96530.31;4988463;28;20230;-83
2022/01/28 01:14:45;;;;;;;4.40;4.00;;;;;;;4.72;93.33;96524.97;4974877;28;20256;-83
2022/01/28 01:17:22;;;;;;;4.83;4.33;;;;;;;4.74;92.49;96530.78;4979433;28;20286;-83
2022/01/28 01:19:52;;;;;;;4.67;4.27;;;;;;;4.75;92.15;96545.16;4981711;28;20203;-83
2022/01/28 01:22:20;;;;;;;4.50;4.10;;;;;;;4.57;92.66;96557.56;4979927;28;20226;-83
2022/01/28 01:24:51;;;;;;;4.80;4.30;;;;;;;4.57;92.83;96560.13;4991812;28;20227;-83
2022/01/28 01:27:20;;;;;;;4.90;4.40;;;;;;;4.53;93.57;96568.91;4980989;28;20207;-83
2022/01/28 01:29:47;;;;;;;5.10;4.60;;;;;;;4.53;93.43;96568.91;4985562;28;20196;-83
2022/01/28 01:32:17;;;;;;;5.67;4.40;;;;;;;4.49;93.33;96560.69;4974958;28;20232;-83
2022/01/28 01:34:44;;;;;;;5.50;4.63;;;;;;;4.43;93.14;96560.31;4978871;28;20235;-84
2022/01/28 01:37:12;;;;;;;5.03;4.53;;;;;;;4.40;93.03;96563.13;4994648;28;20578;-84
2022/01/28 01:39:41;;;;;;;6.40;5.20;;;;;;;4.43;93.28;96562.88;4979493;28;20575;-83
2022/01/28 01:42:19;;;;;;;5.33;4.80;;;;;;;4.31;92.95;96551.88;4974745;28;20243;-83
2022/01/28 01:45:17;;;;;;;5.23;4.70;;;;;;;4.28;92.83;96543.63;4988963;28;20301;-83
2022/01/28 01:53:08;;;;;;;5.30;4.80;;;;;;;4.31;90.70;96564.59;4975109;28;20249;-83
2022/01/28 01:55:35;;;;;;;5.43;4.77;;;;;;;4.32;90.58;96565.41;4994199;28;20253;-83
2022/01/28 01:58:03;;;;;;;5.53;5.00;;;;;;;4.28;90.75;96569.13;4992548;28;20227;-83
2022/01/28 02:00:29;;;;;;;5.20;4.23;;;;;;;4.26;91.27;96576.06;4994295;28;20211;-84
2022/01/28 02:02:56;;;;;;;5.60;4.80;;;;;;;4.16;90.08;96581.84;4993197;28;20222;-83
2022/01/28 02:05:22;;;;;;;5.53;4.60;;;;;;;4.30;90.12;96578.28;4993157;28;20203;-84
2022/01/28 02:07:49;;;;;;;5.33;4.70;;;;;;;4.33;89.24;96582.34;4993718;28;20226;-84
2022/01/28 02:10:15;;;;;;;6.93;5.30;;;;;;;4.28;88.59;96586.97;4975288;28;20308;-84
2022/01/28 02:12:46;;;;;;;5.23;4.60;;;;;;;4.20;88.54;96594.38;4975045;28;20220;-84
2022/01/28 02:15:14;;;;;;;5.63;4.73;;;;;;;4.24;88.38;96591.47;4992282;28;20266;-83
2022/01/28 02:17:41;;;;;;;5.57;4.67;;;;;;;4.22;88.50;96595.09;4993617;28;20235;-84
2022/01/28 02:20:12;;;;;;;5.27;4.77;;;;;;;4.23;87.95;96601.81;4976964;28;20203;-84
2022/01/28 02:22:39;;;;;;;7.10;5.37;;;;;;;4.20;88.21;96589.28;4989852;28;20574;-84
2022/01/28 02:25:06;;;;;;;5.93;5.00;;;;;;;4.25;87.83;96600.75;4995159;28;20206;-83
2022/01/28 02:27:33;;;;;;;5.93;5.07;;;;;;;4.28;88.19;96603.06;4975338;28;20203;-83
2022/01/28 02:29:59;;;;;;;6.20;5.23;;;;;;;4.26;88.28;96610.00;4974732;28;20208;-83
2022/01/28 02:32:25;;;;;;;6.07;5.17;;;;;;;4.33;87.83;96613.75;4974285;28;20235;-83
2022/01/28 02:34:52;;;;;;;6.87;5.10;;;;;;;4.38;87.74;96611.69;4985842;28;20210;-83
2022/01/28 02:37:19;;;;;;;7.47;5.43;;;;;;;4.27;87.33;96623.56;4993757;28;20231;-83
2022/01/28 02:39:46;;;;;;;6.40;5.17;;;;;;;4.35;87.38;96623.84;4989523;28;20231;-84
2022/01/28 02:42:19;;;;;;;5.57;4.97;;;;;;;4.36;87.88;96628.00;4974083;28;20232;-83
2022/01/28 02:44:49;;;;;;;6.03;5.10;;;;;;;4.34;87.00;96633.22;4993572;28;20252;-84
2022/01/28 02:47:18;;;;;;;5.70;5.13;;;;;;;4.33;87.90;96625.69;4994012;28;20200;-83
2022/01/28 02:49:45;;;;;;;7.17;5.37;;;;;;;4.32;87.18;96632.50;4993394;28;20199;-83
2022/01/28 02:52:19;;;;;;;7.67;4.77;;;;;;;4.44;86.75;96625.69;4992297;28;20878;-84
2022/01/28 02:54:49;;;;;;;6.23;5.23;;;;;;;4.52;86.07;96625.94;4975473;28;20208;-84
2022/01/28 02:57:24;;;;;;;5.23;4.73;;;;;;;4.58;85.51;96633.16;4988656;28;20204;-84
2022/01/28 02:59:51;;;;;;;6.87;5.30;;;;;;;4.50;85.46;96630.34;4996473;28;20241;-84
2022/01/28 03:02:18;;;;;;;5.83;4.53;;;;;;;4.46;85.38;96632.31;4986210;28;20225;-84
2022/01/28 03:05:07;;;;;;;6.20;4.80;;;;;;;4.44;85.45;96626.50;4978054;28;20215;-84
2022/01/28 03:07:33;;;;;;;5.50;4.90;;;;;;;4.45;85.19;96632.41;4979247;28;20305;-84
2022/01/28 03:10:27;;;;;;;5.13;4.50;;;;;;;4.50;84.88;96636.25;4995593;28;20234;-84
2022/01/28 03:13:16;;;;;;;6.93;4.97;;;;;;;4.57;85.10;96641.72;4977943;28;20247;-83
2022/01/28 03:15:50;;;;;;;5.47;4.60;;;;;;;4.56;85.03;96632.47;4985198;28;20203;-84
2022/01/28 03:18:20;;;;;;;5.80;4.63;;;;;;;4.57;84.97;96636.63;4993373;28;20196;-83
2022/01/28 03:20:59;;;;;;;5.90;4.90;;;;;;;4.58;85.08;96632.34;4984160;28;20266;-83
2022/01/28 03:23:25;;;;;;;5.73;4.87;;;;;;;4.49;85.79;96644.03;4992750;28;20238;-84
2022/01/28 03:25:53;;;;;;;6.33;5.17;;;;;;;4.46;86.42;96654.44;5000305;28;20207;-83
2022/01/28 03:28:20;;;;;;;5.97;5.13;;;;;;;4.48;87.14;96650.03;5007374;28;20203;-83
2022/01/28 03:30:47;;;;;;;5.77;4.80;;;;;;;4.51;86.50;96655.75;5010170;28;20207;-82
2022/01/28 03:33:13;;;;;;;7.13;5.20;;;;;;;4.51;85.95;96654.94;4999351;28;20222;-82
2022/01/28 03:35:40;;;;;;;5.97;4.87;;;;;;;4.42;85.85;96658.97;4997320;28;20714;-82
2022/01/28 03:38:11;;;;;;;5.33;4.83;;;;;;;4.43;86.67;96675.06;4988584;28;20207;-82
2022/01/28 03:40:37;;;;;;;5.23;4.73;;;;;;;4.45;86.40;96675.75;4978110;28;20739;-82
2022/01/28 03:43:07;;;;;;;4.70;4.27;;;;;;;4.41;86.45;96679.47;4977572;28;20291;-82
2022/01/28 03:45:33;;;;;;;6.00;4.80;;;;;;;4.49;85.98;96669.53;4978056;28;20235;-82
2022/01/28 03:48:00;;;;;;;5.20;4.53;;;;;;;4.54;85.75;96687.84;4985184;28;20227;-82
2022/01/28 03:50:32;;;;;;;5.50;4.67;;;;;;;4.55;85.36;96678.47;4996955;28;20222;-82
2022/01/28 03:52:59;;;;;;;4.80;4.27;;;;;;;4.57;84.58;96679.19;4991226;28;20295;-82
2022/01/28 03:55:25;;;;;;;5.70;4.23;;;;;;;4.59;84.22;96674.78;4977722;28;20571;-82
2022/01/28 03:57:52;;;;;;;5.97;4.30;;;;;;;4.55;84.17;96678.47;4996086;28;20214;-82
2022/01/28 04:00:19;;;;;;;5.00;4.47;;;;;;;4.54;83.59;96677.66;5010198;28;20208;-81
2022/01/28 04:02:47;;;;;;;4.43;4.03;;;;;;;4.57;83.61;96677.44;4993739;28;20220;-82
2022/01/28 04:13:34;;;;;;;5.77;4.30;;;;;;;4.53;84.18;96696.44;5010037;28;20230;-82
2022/01/28 04:16:27;;;;;;;5.90;4.57;;;;;;;4.55;84.24;96688.66;5002830;28;20227;-82
2022/01/28 04:18:52;;;;;;;4.53;4.13;;;;;;;4.56;84.49;96698.75;5003130;28;20247;-82
2022/01/28 04:21:18;;;;;;;6.03;4.33;;;;;;;4.54;84.15;96698.06;5008380;28;20214;-82
2022/01/28 04:23:45;;;;;;;5.30;4.80;;;;;;;4.53;84.26;96708.38;5009809;28;20229;-82
2022/01/28 04:26:11;;;;;;;4.90;4.37;;;;;;;4.53;84.21;96704.09;5001719;28;20207;-82
2022/01/28 04:28:38;;;;;;;5.47;4.23;;;;;;;4.59;84.62;96692.63;4989127;28;20239;-82
2022/01/28 04:31:05;;;;;;;5.07;4.40;;;;;;;4.62;84.42;96705.94;4996292;28;20203;-82
2022/01/28 04:33:32;;;;;;;7.90;4.60;;;;;;;4.45;85.85;96691.88;5009104;28;20224;-83
2022/01/28 04:35:58;;;;;;;4.90;4.27;;;;;;;4.38;86.48;96703.47;5007617;28;20201;-82
2022/01/28 04:38:32;;;;;;;4.80;4.20;;;;;;;4.26;87.62;96708.63;4998398;28;20223;-82
2022/01/28 04:41:07;;;;;;;5.87;4.33;;;;;;;4.26;87.57;96716.25;4994210;28;20246;-82
2022/01/28 04:43:38;;;;;;;5.20;4.70;;;;;;;4.30;87.62;96710.84;5007460;28;20231;-82
2022/01/28 04:46:16;;;;;;;5.87;4.40;;;;;;;4.31;87.19;96709.91;5005258;28;20200;-81
2022/01/28 04:48:50;;;;;;;5.37;4.13;;;;;;;4.39;86.64;96711.94;4989751;28;20295;-82
2022/01/28 04:51:26;;;;;;;5.47;4.73;;;;;;;4.55;85.37;96724.38;4998624;28;20192;-83
2022/01/28 04:54:04;;;;;;;5.33;4.27;;;;;;;4.52;84.72;96720.31;4989991;28;20234;-83
2022/01/28 04:59:30;;;;;;;5.70;4.30;;;;;;;4.51;84.29;96728.88;5003527;28;20301;-83
2022/01/28 05:04:57;;;;;;;4.97;4.27;;;;;;;4.48;84.15;96722.25;4974122;28;20206;-82
2022/01/28 05:10:38;;;;;;;4.80;4.27;;;;;;;4.36;84.86;96707.84;4954430;28;20196;-82
2022/01/28 05:13:27;;;;;;;5.37;4.87;;;;;;;4.36;84.92;96715.50;5003715;28;20219;-82
2022/01/28 05:24:40;;;;;;;5.10;4.23;;;;;;;4.41;84.68;96725.38;4992535;28;20227;-82
2022/01/28 05:27:09;;;;;;;8.73;5.07;;;;;;;4.45;83.80;96719.13;4996137;28;20254;-81
2022/01/28 05:29:39;;;;;;;4.43;4.03;;;;;;;4.38;84.01;96717.94;5006805;28;20265;-82
2022/01/28 05:32:06;;;;;;;4.97;4.47;;;;;;;4.29;84.37;96733.88;4982282;28;20222;-82
2022/01/28 05:34:34;;;;;;;6.23;4.80;;;;;;;4.32;83.51;96721.75;4992919;28;20199;-82
2022/01/28 05:37:00;;;;;;;5.50;4.47;;;;;;;4.35;83.59;96721.53;4992672;28;20203;-82
2022/01/28 05:39:27;;;;;;;4.73;4.20;;;;;;;4.22;83.74;96730.97;4981071;28;20232;-82
2022/01/28 05:41:54;;;;;;;4.30;3.90;;;;;;;4.29;83.77;96727.06;4975856;28;20207;-83
2022/01/28 05:44:22;;;;;;;4.60;4.13;;;;;;;4.23;83.94;96744.53;4984310;28;20223;-82
2022/01/28 05:46:49;;;;;;;5.23;4.10;;;;;;;4.22;84.34;96748.81;4991920;28;20250;-83
2022/01/28 05:49:16;;;;;;;5.00;4.50;;;;;;;4.26;84.66;96755.31;4986687;28;20210;-82
2022/01/28 05:51:44;;;;;;;5.20;4.27;;;;;;;4.27;85.05;96746.75;4993304;28;20306;-82
2022/01/28 05:54:11;;;;;;;4.47;4.07;;;;;;;4.21;85.47;96752.28;4992019;28;20218;-82
2022/01/28 05:56:38;;;;;;;5.60;4.67;;;;;;;4.26;85.78;96754.50;4992486;28;20214;-82
2022/01/28 05:59:04;;;;;;;5.93;4.47;;;;;;;4.24;86.08;96758.88;4984963;28;20200;-82
2022/01/28 06:01:31;;;;;;;4.57;4.03;;;;;;;4.20;85.75;96770.25;4988525;28;20287;-82
2022/01/28 06:03:58;;;;;;;4.70;3.90;;;;;;;4.18;85.99;96774.63;4992547;28;20714;-83
2022/01/28 06:06:25;;;;;;;5.03;4.23;;;;;;;4.27;85.88;96786.72;4991637;28;20663;-82
2022/01/28 06:08:54;;;;;;;6.13;4.43;;;;;;;4.25;85.91;96786.81;4991160;28;20873;-82
2022/01/28 06:11:22;;;;;;;5.57;4.73;;;;;;;4.12;85.08;96779.22;4986002;28;20223;-82
2022/01/28 06:13:48;;;;;;;5.97;4.03;;;;;;;4.08;85.71;96789.75;4988457;28;20219;-82
2022/01/28 06:16:16;;;;;;;4.93;4.10;;;;;;;4.10;85.51;96781.06;4992221;28;20196;-82
2022/01/28 06:18:44;;;;;;;4.70;3.90;;;;;;;4.02;84.52;96801.19;4991791;28;20211;-82
2022/01/28 06:21:11;;;;;;;5.30;4.17;;;;;;;4.09;84.32;96804.09;4991530;28;20242;-83
2022/01/28 06:23:38;;;;;;;5.10;3.60;;;;;;;4.09;83.62;96802.38;4992799;28;20259;-82
2022/01/28 06:26:06;;;;;;;4.37;3.80;;;;;;;4.14;83.38;96807.97;4991776;28;20675;-83
2022/01/28 06:28:33;;;;;;;5.67;4.20;;;;;;;4.10;82.82;96821.84;4990076;28;20292;-83
2022/01/28 06:30:59;;;;;;;7.27;4.37;;;;;;;4.19;81.97;96817.84;4987882;28;20250;-82
2022/01/28 06:33:26;;;;;;;5.23;4.10;;;;;;;4.24;81.28;96827.72;4996486;28;20234;-83
2022/01/28 06:35:56;;;;;;;4.50;3.80;;;;;;;4.25;82.57;96837.81;4996400;28;20222;-82
2022/01/28 06:38:37;;;;;;;4.10;3.70;;;;;;;4.26;81.21;96834.34;4990775;28;20204;-83
2022/01/28 06:41:05;;;;;;;5.93;4.80;;;;;;;4.23;80.35;96839.66;4995533;28;20227;-83
2022/01/28 06:43:35;;;;;;;4.77;4.00;;;;;;;4.21;80.20;96849.16;4992824;28;20227;-83
2022/01/28 06:46:01;;;;;;;4.00;3.47;;;;;;;4.19;80.83;96840.81;5014258;23;20230;-86
2022/01/28 06:48:28;;;;;;;4.50;4.10;;;;;;;4.22;80.60;96843.13;5011007;28;20250;-84
2022/01/28 06:50:54;;;;;;;4.07;3.60;;;;;;;4.23;80.80;96838.84;5018386;28;20252;-86
2022/01/28 06:53:21;;;;;;;4.23;3.80;;;;;;;4.17;81.14;96837.53;5016530;28;20241;-86
2022/01/28 06:55:47;;;;;;;4.63;3.93;;;;;;;4.21;80.88;96836.41;5012153;28;20222;-84
2022/01/28 06:58:14;;;;;;;5.37;4.10;;;;;;;4.30;80.78;96824.75;5006717;28;20575;-84
2022/01/28 07:00:41;;;;;;;4.53;3.90;;;;;;;4.32;80.67;96840.75;5012207;28;20222;-84
2022/01/28 07:03:09;;;;;;;7.30;3.93;;;;;;;4.33;80.79;96842.38;5012574;28;20250;-84
2022/01/28 07:05:36;;;;;;;4.90;3.87;;;;;;;4.29;80.71;96844.31;5004089;28;20215;-85
2022/01/28 07:08:04;;;;;;;4.77;3.93;;;;;;;4.26;81.66;96841.97;5009836;28;20203;-84
2022/01/28 07:10:31;;;;;;;4.60;4.00;;;;;;;4.10;83.28;96860.06;5007335;28;20203;-84
2022/01/28 07:12:57;;;;;;;4.67;3.93;;;;;;;3.96;86.33;96872.13;5011718;28;20239;-86
2022/01/28 07:15:25;;;;;;;4.10;3.70;;;;;;;3.95;87.65;96863.69;5008175;28;20234;-83
2022/01/28 07:17:54;;;;;;;4.43;3.70;;;;;;;3.91;88.12;96861.44;5007448;28;20273;-85
2022/01/28 07:20:20;;;;;;;5.00;4.10;;;;;;;3.87;88.82;96860.00;5013386;28;20209;-86
2022/01/28 07:22:47;;;;;;;5.27;3.83;;;;;;;3.89;88.44;96868.34;5013367;28;20747;-85
2022/01/28 07:25:13;;;;;;;5.47;3.90;;;;;;;3.85;88.81;96872.06;5013521;28;20225;-85
2022/01/28 07:27:40;;;;;;;4.47;3.90;;;;;;;3.90;88.44;96887.81;5022200;28;20203;-85
2022/01/28 07:30:09;;;;;;;4.67;4.27;;;;;;;3.88;89.06;96885.38;5013216;28;20199;-85
2022/01/28 07:32:35;;;;;;;5.07;4.57;;;;;;;3.85;88.62;96887.34;5004982;28;20237;-85
2022/01/28 07:35:04;;;;;;;7.37;4.47;;;;;;;3.84;89.34;96872.97;5013396;28;20274;-86
2022/01/28 07:37:30;;;;;;;5.67;4.80;;;;;;;3.83;89.53;96879.81;5012481;28;20218;-85
2022/01/28 07:39:57;;;;;;;6.33;4.80;;;;;;;3.70;89.91;96877.25;5013728;28;20207;-84
2022/01/28 07:42:25;;;;;;;5.20;4.70;;;;;;;3.82;90.08;96878.16;5011317;28;20230;-86
2022/01/28 07:44:51;;;;;;;7.50;5.07;;;;;;;3.91;89.69;96876.72;5011916;28;20242;-85
2022/01/28 07:47:18;;;;;;;11.33;8.53;;;;;;;3.93;89.45;96877.44;5011543;28;20199;-85
2022/01/28 07:49:44;;;;;;;6.20;4.87;;;;;;;3.89;89.54;96879.38;5012249;28;20304;-86
2022/01/28 07:52:12;;;;;;;5.83;4.83;;;;;;;3.95;89.42;96875.59;5012813;28;20237;-85
2022/01/28 07:54:45;;;;;;;6.30;4.73;;;;;;;3.91;89.25;96887.72;5011945;28;20234;-84
2022/01/28 07:57:11;;;;;;;5.87;4.50;;;;;;;3.98;88.22;96888.94;5012852;28;20226;-84
2022/01/28 07:59:38;;;;;;;6.13;5.00;;;;;;;3.97;89.30;96900.06;5012251;28;20206;-85
2022/01/28 08:02:05;;;;;;;6.27;4.77;;;;;;;3.96;89.12;96902.72;5013464;28;20206;-84
2022/01/28 08:04:31;;;;;;;5.30;4.60;;;;;;;3.98;90.03;96900.88;5003595;28;20198;-84
2022/01/28 08:06:58;;;;;;;10.10;6.30;;;;;;;4.00;88.37;96899.84;5025519;28;20206;-84
2022/01/28 08:09:26;;;;;;;7.10;4.47;;;;;;;4.03;88.83;96909.03;5011699;28;20202;-84
2022/01/28 08:11:52;;;;;;;5.83;4.80;;;;;;;3.97;87.09;96910.25;5012086;28;20215;-81
2022/01/28 08:14:18;;;;;;;6.23;4.40;;;;;;;4.02;88.16;96925.25;5011363;28;20230;-85
2022/01/28 08:16:45;;;;;;;6.27;4.57;;;;;;;4.01;87.88;96914.22;5012409;28;20790;-84
2022/01/28 08:19:11;;;;;;;5.13;4.40;;;;;;;3.99;86.96;96915.25;5011946;28;20586;-84
2022/01/28 08:21:38;;;;;;;6.27;4.27;;;;;;;3.87;86.87;96921.16;5012515;28;20199;-84
2022/01/28 08:24:05;;;;;;;7.13;4.40;;;;;;;3.90;87.08;96931.13;5012800;28;20207;-84
2022/01/28 08:26:33;;;;;;;5.90;4.30;;;;;;;3.93;86.97;96931.75;5004639;28;20574;-84
2022/01/28 08:28:59;;;;;;;5.03;4.47;;;;;;;3.99;86.10;96933.09;5006798;28;20569;-85
2022/01/28 08:31:27;;;;;;;5.90;3.97;;;;;;;4.00;85.76;96935.53;5007964;28;20191;-84
2022/01/28 08:33:55;;;;;;;9.70;8.20;;;;;;;4.00;86.44;96934.72;5007745;28;20222;-85
2022/01/28 08:36:21;;;;;;;5.07;4.07;;;;;;;4.03;85.25;96931.97;5007486;28;20232;-86
2022/01/28 08:38:50;;;;;;;5.43;3.87;;;;;;;3.93;85.69;96930.94;5007806;28;20225;-85
2022/01/28 08:41:16;;;;;;;4.27;3.87;;;;;;;3.94;85.10;96927.47;5003454;28;20298;-86
2022/01/28 08:43:44;;;;;;;6.87;3.97;;;;;;;3.96;85.00;96933.28;5006313;28;20198;-86
2022/01/28 08:46:10;;;;;;;5.27;3.47;;;;;;;3.94;83.93;96935.13;5000512;28;20233;-85
2022/01/28 08:48:37;;;;;;;4.97;3.63;;;;;;;4.05;83.97;96933.47;5011819;28;20211;-84
2022/01/28 08:51:04;;;;;;;5.30;4.00;;;;;;;4.10;83.24;96935.72;5011858;28;20212;-85
2022/01/28 08:53:30;;;;;;;4.87;3.70;;;;;;;4.11;83.19;96942.44;5004913;28;20222;-84
2022/01/28 08:55:57;;;;;;;5.80;4.03;;;;;;;4.02;83.09;96950.72;5003451;28;20226;-86
2022/01/28 08:58:23;;;;;;;4.77;3.43;;;;;;;4.03;84.00;96955.72;5006111;28;20204;-83
2022/01/28 09:00:51;;;;;;;4.83;3.60;;;;;;;4.05;83.72;96951.31;5009269;28;20234;-85
2022/01/28 09:03:20;;;;;;;4.40;3.80;;;;;;;4.18;83.57;96958.16;5009722;28;20667;-83
2022/01/28 09:05:47;;;;;;;6.27;3.80;;;;;;;4.18;82.59;96958.16;5010842;28;20574;-84
2022/01/28 09:08:14;;;;;;;5.27;3.70;;;;;;;4.16;82.82;96955.69;5009110;28;20199;-86
2022/01/28 09:10:45;;;;;;;6.57;4.07;;;;;;;4.22;83.98;96952.75;5009152;28;20202;-84
2022/01/28 09:13:22;;;;;;;4.63;3.40;;;;;;;4.26;83.81;96953.34;5006270;28;20721;-84
2022/01/28 09:15:51;;;;;;;5.30;3.80;;;;;;;4.25;82.81;96957.63;5009812;28;20589;-87
2022/01/28 09:18:19;;;;;;;4.70;4.20;;;;;;;4.29;83.32;96948.03;5008037;28;20213;-85
2022/01/28 09:20:46;;;;;;;5.57;3.97;;;;;;;4.41;82.48;96939.56;5009554;28;20277;-84
2022/01/28 09:23:13;;;;;;;5.43;3.83;;;;;;;4.53;83.08;96937.91;5010221;28;20202;-84
2022/01/28 09:25:40;;;;;;;4.93;3.57;;;;;;;4.57;82.56;96944.44;5010619;28;20210;-86
2022/01/28 09:28:07;;;;;;;5.70;3.90;;;;;;;4.62;80.69;96944.94;5003197;28;20211;-85
2022/01/28 09:30:33;;;;;;;8.73;4.43;;;;;;;4.64;80.33;96943.88;5008942;28;20341;-84
2022/01/28 09:33:02;;;;;;;6.43;3.50;;;;;;;4.58;79.78;96944.31;5009533;28;20222;-85
2022/01/28 09:35:29;;;;;;;4.70;3.90;;;;;;;4.58;79.52;96949.41;5010068;28;20226;-85
2022/01/28 09:37:55;;;;;;;4.17;3.30;;;;;;;4.57;78.80;96954.63;5008917;28;20616;-86
2022/01/28 09:40:22;;;;;;;3.87;3.33;;;;;;;4.72;78.19;96956.94;5001907;28;20203;-86
2022/01/28 09:42:52;;;;;;;4.73;3.43;;;;;;;4.81;77.54;96958.81;5006674;28;20199;-86
2022/01/28 09:45:21;;;;;;;3.83;3.37;;;;;;;4.86;76.89;96963.59;5005354;28;20265;-85
2022/01/28 09:47:51;;;;;;;4.63;3.67;;;;;;;4.88;77.05;96959.22;5007764;28;20205;-85
2022/01/28 09:50:21;;;;;;;5.60;3.43;;;;;;;4.85;76.88;96960.25;5004130;28;20226;-85
2022/01/28 09:52:48;;;;;;;4.53;3.40;;;;;;;4.77;76.47;96966.81;5005143;28;20245;-85
2022/01/28 09:55:14;;;;;;;5.17;3.67;;;;;;;4.74;76.45;96957.63;4996882;28;20222;-85
2022/01/28 09:57:41;;;;;;;5.63;4.60;;;;;;;4.83;76.73;96981.69;4998963;28;20207;-85
2022/01/28 10:00:10;;;;;;;4.47;3.70;;;;;;;4.88;76.83;96992.38;4972584;28;20214;-85
2022/01/28 10:02:51;;;;;;;4.83;3.20;;;;;;;4.63;75.24;96961.84;4999683;28;20671;-85
2022/01/28 10:05:21;;;;;;;4.80;3.67;;;;;;;4.70;76.50;96968.97;5000059;28;20215;-86
2022/01/28 10:08:10;;;;;;;6.80;3.77;;;;;;;4.68;75.32;96960.59;5008099;28;20205;-84
2022/01/28 10:10:49;;;;;;;4.87;3.27;;;;;;;4.57;76.34;96970.75;5001314;28;20713;-86
2022/01/28 10:13:21;;;;;;;4.23;3.00;;;;;;;4.55;75.98;96975.13;5008732;28;20681;-85
2022/01/28 10:16:02;;;;;;;3.10;2.80;;;;;;;4.64;75.61;96974.47;5009692;28;20238;-86
2022/01/28 10:18:54;;;;;;;4.07;2.97;;;;;;;4.71;75.23;96977.44;5009943;28;20232;-86
2022/01/28 10:21:32;;;;;;;3.50;2.87;;;;;;;4.68;74.43;96973.34;4997219;28;20226;-84
2022/01/28 10:24:11;;;;;;;4.53;3.10;;;;;;;4.68;74.41;96980.19;5009229;28;20198;-85
2022/01/28 10:26:41;;;;;;;5.17;3.20;;;;;;;4.72;74.67;96971.41;5004275;28;20218;-84
2022/01/28 10:29:09;;;;;;;4.30;3.20;;;;;;;4.81;74.42;96975.91;5005890;28;20230;-85
2022/01/28 10:31:43;;;;;;;4.20;2.77;;;;;;;4.83;74.03;96976.56;5001495;28;20207;-84
2022/01/28 10:34:11;;;;;;;5.70;3.30;;;;;;;4.82;73.72;96972.38;5002277;28;20215;-86
2022/01/28 10:36:39;;;;;;;4.77;3.57;;;;;;;4.81;73.71;96973.34;5004174;28;20219;-86
2022/01/28 10:39:06;;;;;;;5.37;3.17;;;;;;;4.98;74.00;96983.19;5004807;28;20206;-86
2022/01/28 10:41:32;;;;;;;4.07;2.67;;;;;;;5.00;73.71;96988.19;4998878;28;20218;-87
2022/01/28 10:44:01;;;;;;;3.50;3.13;;;;;;;4.95;72.99;96977.47;5006511;28;20203;-83
2022/01/28 10:46:31;;;;;;;4.63;2.97;;;;;;;5.00;73.52;96972.88;5009445;28;20740;-85
2022/01/28 10:49:01;;;;;;;5.47;2.80;;;;;;;5.03;73.41;96976.00;5007961;28;20218;-83
2022/01/28 10:51:39;;;;;;;4.80;2.97;;;;;;;5.01;72.75;96982.13;5009190;28;20593;-83
2022/01/28 10:54:07;;;;;;;4.07;3.17;;;;;;;4.96;72.06;96976.56;5008977;28;20305;-83
2022/01/28 10:56:53;;;;;;;4.43;2.83;;;;;;;5.02;72.28;96969.25;5009255;28;20270;-83
2022/01/28 10:59:21;;;;;;;10.23;7.00;;;;;;;5.07;71.79;96972.31;4997894;28;20643;-84
2022/01/28 11:01:48;;;;;;;7.63;5.27;;;;;;;5.11;71.66;96973.72;4999238;28;20206;-84
2022/01/28 11:04:16;;;;;;;3.90;2.67;;;;;;;5.11;71.08;96976.28;5005797;28;20199;-82
2022/01/28 11:06:45;;;;;;;4.70;2.87;;;;;;;5.04;70.43;96969.16;5008604;28;20202;-83
2022/01/28 11:09:12;;;;;;;4.17;2.97;;;;;;;5.13;69.77;96960.84;5007185;28;20199;-84
2022/01/28 11:11:39;;;;;;;4.77;2.30;;;;;;;5.10;70.28;96971.28;5009310;28;20201;-82
2022/01/28 11:14:07;;;;;;;3.57;2.70;;;;;;;5.11;69.86;96971.19;5004878;28;20227;-82
2022/01/28 11:16:34;;;;;;;2.77;2.40;;;;;;;5.13;69.34;96978.72;5003775;28;20211;-85
2022/01/28 11:19:03;;;;;;;3.63;2.60;;;;;;;5.17;69.84;96980.16;5004754;28;20553;-82
2022/01/28 11:21:39;;;;;;;3.10;2.40;;;;;;;5.11;69.23;96973.72;5009272;28;20205;-83
2022/01/28 11:24:15;;;;;;;4.13;2.20;;;;;;;5.08;67.95;96975.69;5008292;28;20222;-84
2022/01/28 11:26:50;;;;;;;3.80;2.30;;;;;;;4.96;68.32;96974.81;5004346;28;20222;-83
2022/01/28 11:29:20;;;;;;;4.30;2.07;;;;;;;4.97;67.62;96984.09;5008002;28;20206;-85
2022/01/28 11:31:48;;;;;;;3.80;1.90;;;;;;;5.02;68.25;96981.22;5010235;28;20222;-84
2022/01/28 11:34:18;;;;;;;2.70;1.87;;;;;;;5.01;66.66;96965.06;4996218;28;20227;-84
2022/01/28 11:36:45;;;;;;;3.77;2.00;;;;;;;5.04;66.64;96969.16;5009624;28;20612;-86
2022/01/28 11:39:33;;;;;;;4.10;1.97;;;;;;;5.04;66.86;96966.59;5007719;28;20203;-84
2022/01/28 11:42:06;;;;;;;3.23;1.80;;;;;;;5.13;66.71;96968.53;5009026;28;20194;-84
2022/01/28 11:44:54;;;;;;;4.60;2.27;;;;;;;5.14;65.87;96983.72;5007302;28;20223;-83
2022/01/28 11:47:23;;;;;;;3.37;2.03;;;;;;;5.20;65.98;96967.13;5007939;28;20258;-83
2022/01/28 11:49:58;;;;;;;2.60;2.20;;;;;;;5.18;66.65;96969.84;5006918;28;20868;-81
2022/01/28 11:52:27;;;;;;;3.87;2.17;;;;;;;5.24;65.62;96967.75;5007997;28;20201;-82
2022/01/28 11:54:55;;;;;;;2.67;2.03;;;;;;;5.23;65.81;96961.81;5008044;28;20230;-83
2022/01/28 11:57:26;;;;;;;7.30;5.23;;;;;;;5.20;65.98;96970.50;5004406;28;20988;-85
2022/01/28 11:59:52;;;;;;;3.30;2.13;;;;;;;5.28;66.43;96974.28;5007764;28;20210;-84
2022/01/28 12:02:23;;;;;;;4.23;2.33;;;;;;;5.28;66.00;96974.28;5007565;28;20199;-84
2022/01/28 12:04:50;;;;;;;4.20;2.00;;;;;;;5.33;66.17;96973.03;5009230;28;20230;-83
2022/01/28 12:07:19;;;;;;;4.83;2.10;;;;;;;5.42;66.50;96979.19;5007007;28;20229;-85
2022/01/28 12:09:48;;;;;;;2.83;1.97;;;;;;;5.40;65.68;96976.75;5009152;28;20199;-84
2022/01/28 12:12:25;;;;;;;5.17;2.43;;;;;;;5.42;65.98;96967.25;5007419;28;20830;-82
2022/01/28 12:15:00;;;;;;;3.83;2.13;;;;;;;5.37;64.73;96976.19;5008294;28;20867;-83
2022/01/28 12:17:47;;;;;;;3.80;1.90;;;;;;;5.32;64.67;96984.16;5005474;28;20280;-84
2022/01/28 12:20:38;;;;;;;4.70;2.43;;;;;;;5.28;65.65;96981.94;5004788;28;20196;-85
2022/01/28 12:23:38;;;;;;;3.03;2.00;;;;;;;5.28;65.32;96981.94;5001003;28;20206;-84
2022/01/28 12:26:05;;;;;;;3.47;1.90;;;;;;;5.28;65.43;96969.16;5002185;28;20222;-84
2022/01/28 12:28:49;;;;;;;4.13;2.07;;;;;;;5.30;66.04;96967.31;5007919;28;20662;-85
2022/01/28 12:31:20;;;;;;;5.20;2.07;;;;;;;5.27;65.04;96972.63;5005086;28;20270;-85
2022/01/28 12:33:50;;;;;;;4.83;2.07;;;;;;;5.29;65.61;96979.28;5006299;28;20701;-84
2022/01/28 12:36:21;;;;;;;3.27;2.30;;;;;;;5.30;65.50;96977.53;5007838;28;20229;-86
2022/01/28 12:38:59;;;;;;;4.77;2.17;;;;;;;5.34;65.93;96976.41;4985501;28;20270;-84
2022/01/28 12:41:26;;;;;;;12.53;8.13;;;;;;;5.33;67.91;96978.13;5017475;28;20215;-86
2022/01/28 12:43:54;;;;;;;5.10;2.60;;;;;;;5.35;66.99;96967.81;5009013;28;20198;-84
2022/01/28 12:46:21;;;;;;;3.63;2.60;;;;;;;5.38;67.97;96981.19;5009428;28;20280;-84